createdAt,value
2018-11-23T00:00:50.767Z,17.67
2018-11-23T00:03:19.279Z,15.73
2018-11-23T00:05:47.577Z,15.67
2018-11-23T00:08:16.101Z,14.00
2018-11-23T00:10:44.430Z,19.73
2018-11-23T00:13:12.919Z,14.97
2018-11-23T00:15:41.197Z,15.63
2018-11-23T00:18:09.827Z,10.10
2018-11-23T00:20:38.416Z,13.33
2018-11-23T00:23:06.866Z,20.17
2018-11-23T00:25:35.461Z,16.90
2018-11-23T00:28:04.073Z,13.37
2018-11-23T00:30:32.439Z,10.77
2018-11-23T00:33:00.906Z,15.10
2018-11-23T00:35:30.659Z,15.17
2018-11-23T00:37:59.370Z,12.87
2018-11-23T00:40:30.115Z,13.57
2018-11-23T00:42:58.922Z,13.00
2018-11-23T00:45:27.700Z,17.90
2018-11-23T00:47:57.048Z,13.87
2018-11-23T00:50:26.269Z,13.50
2018-11-23T00:52:55.586Z,14.30
2018-11-23T00:55:25.168Z,12.27
2018-11-23T00:57:53.683Z,12.97
2018-11-23T01:00:23.666Z,13.20
2018-11-23T01:02:52.527Z,14.73
2018-11-23T01:05:21.075Z,15.90
2018-11-23T01:07:49.841Z,12.90
2018-11-23T01:10:19.332Z,12.10
2018-11-23T01:13:02.838Z,14.27
2018-11-23T01:15:31.556Z,14.20
2018-11-23T01:18:00.215Z,13.50
2018-11-23T01:20:28.878Z,12.43
2018-11-23T01:22:57.964Z,17.00
2018-11-23T01:25:27.162Z,9.87
2018-11-23T01:27:55.857Z,14.10
2018-11-23T01:30:25.577Z,13.53
2018-11-23T01:32:54.153Z,12.67
2018-11-23T01:35:22.789Z,10.17
2018-11-23T01:37:51.234Z,13.60
2018-11-23T01:40:20.928Z,12.67
2018-11-23T01:42:49.557Z,15.97
2018-11-23T01:45:18.037Z,11.10
2018-11-23T01:47:46.425Z,14.07
2018-11-23T01:50:16.849Z,12.53
2018-11-23T01:52:46.390Z,14.43
2018-11-23T01:55:15.715Z,17.10
2018-11-23T01:57:44.466Z,13.60
2018-11-23T02:00:14.958Z,12.97
2018-11-23T02:02:43.691Z,15.27
2018-11-23T02:05:12.202Z,15.33
2018-11-23T02:07:40.769Z,14.33
2018-11-23T02:10:10.079Z,16.03
2018-11-23T02:12:38.511Z,17.23
2018-11-23T02:15:08.809Z,13.73
2018-11-23T02:17:37.229Z,16.40
2018-11-23T02:20:07.745Z,13.43
2018-11-23T02:22:36.010Z,14.90
2018-11-23T02:25:04.933Z,11.57
2018-11-23T02:27:33.308Z,15.77
2018-11-23T02:30:01.909Z,16.30
2018-11-23T02:32:30.529Z,12.20
2018-11-23T02:34:59.058Z,11.43
2018-11-23T02:37:27.463Z,13.03
2018-11-23T02:39:55.986Z,14.80
2018-11-23T02:42:24.408Z,13.30
2018-11-23T02:44:52.819Z,15.17
2018-11-23T02:47:21.197Z,16.07
2018-11-23T02:49:49.716Z,14.07
2018-11-23T02:52:18.330Z,14.37
2018-11-23T02:54:46.576Z,15.33
2018-11-23T02:57:15.143Z,12.37
2018-11-23T02:59:43.558Z,11.90
2018-11-23T03:02:11.850Z,13.07
2018-11-23T03:04:40.296Z,14.37
2018-11-23T03:07:08.634Z,12.57
2018-11-23T03:09:37.071Z,10.80
2018-11-23T03:12:05.533Z,14.13
2018-11-23T03:14:33.933Z,12.90
2018-11-23T03:17:05.300Z,13.57
2018-11-23T03:19:33.603Z,11.00
2018-11-23T03:22:02.012Z,12.03
2018-11-23T03:24:30.217Z,12.47
2018-11-23T03:26:58.514Z,15.27
2018-11-23T03:29:26.848Z,15.53
2018-11-23T03:31:55.133Z,9.70
2018-11-23T03:34:23.422Z,14.70
2018-11-23T03:36:51.986Z,7.10
2018-11-23T03:39:20.306Z,8.23
2018-11-23T03:41:48.541Z,8.70
2018-11-23T03:44:16.814Z,11.33
2018-11-23T03:46:45.010Z,15.00
2018-11-23T03:49:13.360Z,12.53
2018-11-23T03:51:41.638Z,15.33
2018-11-23T03:54:10.148Z,11.00
2018-11-23T03:56:38.397Z,13.53
2018-11-23T03:59:06.838Z,10.63
2018-11-23T04:01:35.262Z,15.47
2018-11-23T04:04:03.651Z,12.90
2018-11-23T04:06:32.306Z,9.63
2018-11-23T04:09:00.630Z,12.33
2018-11-23T04:11:29.065Z,13.70
2018-11-23T04:13:57.553Z,12.30
2018-11-23T04:16:25.860Z,11.20
2018-11-23T04:18:54.518Z,12.60
2018-11-23T04:21:23.630Z,11.77
2018-11-23T04:23:52.236Z,8.00
2018-11-23T04:26:24.855Z,12.20
2018-11-23T04:28:49.339Z,8.53
2018-11-23T04:31:18.036Z,10.07
2018-11-23T04:33:46.651Z,15.60
2018-11-23T04:36:15.141Z,12.70
2018-11-23T04:38:43.508Z,8.90
2018-11-23T04:41:12.002Z,11.60
2018-11-23T04:43:40.410Z,15.73
2018-11-23T04:46:08.974Z,11.10
2018-11-23T04:48:37.992Z,12.23
2018-11-23T04:51:06.453Z,18.97
2018-11-23T04:53:34.816Z,19.53
2018-11-23T04:56:03.498Z,14.10
2018-11-23T04:58:32.002Z,15.20
2018-11-23T05:01:00.579Z,19.57
2018-11-23T05:03:28.933Z,14.07
2018-11-23T05:05:57.604Z,15.83
2018-11-23T05:08:26.053Z,13.57
2018-11-23T05:10:54.916Z,16.13
2018-11-23T05:13:23.278Z,16.83
2018-11-23T05:15:51.795Z,20.43
2018-11-23T05:18:20.470Z,16.47
2018-11-23T05:20:48.850Z,19.90
2018-11-23T05:23:17.891Z,17.80
2018-11-23T05:25:46.231Z,14.83
2018-11-23T05:28:15.866Z,18.40
2018-11-23T05:30:44.303Z,15.47
2018-11-23T05:33:12.938Z,15.63
2018-11-23T05:35:41.580Z,15.63
2018-11-23T05:38:10.121Z,19.80
2018-11-23T05:40:38.630Z,16.87
2018-11-23T05:43:07.320Z,18.53
2018-11-23T05:45:36.069Z,15.40
2018-11-23T05:48:05.035Z,16.00
2018-11-23T05:50:33.693Z,15.73
2018-11-23T05:53:02.286Z,18.03
2018-11-23T05:55:30.841Z,18.10
2018-11-23T05:57:59.498Z,17.50
2018-11-23T06:00:29.847Z,19.50
2018-11-23T06:02:58.503Z,16.73
2018-11-23T06:05:27.179Z,16.33
2018-11-23T06:07:55.903Z,20.57
2018-11-23T06:10:24.539Z,18.63
2018-11-23T06:12:53.112Z,24.97
2018-11-23T06:15:22.909Z,22.07
2018-11-23T06:17:51.922Z,21.60
2018-11-23T06:20:21.560Z,16.97
2018-11-23T06:22:50.861Z,15.07
2018-11-23T06:25:32.716Z,24.87
2018-11-23T06:28:01.789Z,15.53
2018-11-23T06:30:30.250Z,16.93
2018-11-23T06:33:09.642Z,19.97
2018-11-23T06:35:38.183Z,21.50
2018-11-23T06:38:06.851Z,16.30
2018-11-23T06:40:35.335Z,17.40
2018-11-23T06:43:04.993Z,19.87
2018-11-23T06:45:37.714Z,17.13
2018-11-23T06:48:07.345Z,20.97
2018-11-23T06:50:35.893Z,20.83
2018-11-23T06:53:04.721Z,16.33
2018-11-23T06:55:33.407Z,18.83
2018-11-23T06:58:01.764Z,18.43
2018-11-23T07:00:30.520Z,17.63
2018-11-23T07:02:59.206Z,17.97
2018-11-23T07:05:28.955Z,15.27
2018-11-23T07:07:57.453Z,14.57
2018-11-23T07:10:26.137Z,17.40
2018-11-23T07:12:54.515Z,13.60
2018-11-23T07:15:23.112Z,12.23
2018-11-23T07:17:51.689Z,15.63
2018-11-23T07:20:20.094Z,13.33
2018-11-23T07:22:48.651Z,14.80
2018-11-23T07:25:17.164Z,19.83
2018-11-23T07:27:45.590Z,16.60
2018-11-23T07:30:16.187Z,19.57
2018-11-23T07:32:44.652Z,20.73
2018-11-23T07:35:13.607Z,14.40
2018-11-23T07:37:42.080Z,25.93
2018-11-23T07:40:22.545Z,26.27
2018-11-23T07:42:51.294Z,17.97
2018-11-23T07:45:19.668Z,20.77
2018-11-23T07:47:48.139Z,18.70
2018-11-23T07:50:16.871Z,17.20
2018-11-23T07:52:45.195Z,22.37
2018-11-23T07:55:13.888Z,22.27
2018-11-23T07:57:42.290Z,21.87
2018-11-23T08:00:13.968Z,14.43
2018-11-23T08:02:43.931Z,17.27
2018-11-23T08:05:13.599Z,18.40
2018-11-23T08:07:42.091Z,17.77
2018-11-23T08:10:10.840Z,19.70
2018-11-23T08:12:40.541Z,17.03
2018-11-23T08:15:10.985Z,20.20
2018-11-23T08:17:39.926Z,16.90
2018-11-23T08:20:09.532Z,20.03
2018-11-23T08:22:38.300Z,17.80
2018-11-23T08:25:07.646Z,18.97
2018-11-23T08:27:36.195Z,19.90
2018-11-23T08:30:07.107Z,16.27
2018-11-23T08:32:36.115Z,18.07
2018-11-23T08:35:04.485Z,17.63
2018-11-23T08:37:33.028Z,19.47
2018-11-23T08:40:01.397Z,16.80
2018-11-23T08:42:29.981Z,16.37
2018-11-23T08:45:12.936Z,16.67
2018-11-23T08:47:43.060Z,16.10
2018-11-23T08:50:14.982Z,17.07
2018-11-23T08:52:43.519Z,18.20
2018-11-23T08:55:14.524Z,17.37
2018-11-23T08:57:43.277Z,15.63
2018-11-23T09:00:17.044Z,17.73
2018-11-23T09:02:46.802Z,13.83
2018-11-23T09:05:16.108Z,17.83
2018-11-23T09:07:46.317Z,16.47
2018-11-23T09:10:16.765Z,16.20
2018-11-23T09:12:46.928Z,14.50
2018-11-23T09:15:15.753Z,16.93
2018-11-23T09:17:44.641Z,19.00
2018-11-23T09:20:13.737Z,16.30
2018-11-23T09:22:42.502Z,20.70
2018-11-23T09:25:13.598Z,20.70
2018-11-23T09:27:42.420Z,16.07
2018-11-23T09:30:15.102Z,30.33
2018-11-23T09:32:45.459Z,18.77
2018-11-23T09:35:13.884Z,17.83
2018-11-23T09:37:42.655Z,18.27
2018-11-23T09:40:13.615Z,17.03
2018-11-23T09:42:42.149Z,27.57
2018-11-23T09:45:12.966Z,38.37
2018-11-23T09:47:41.803Z,25.17
2018-11-23T09:50:13.489Z,23.53
2018-11-23T09:52:42.294Z,18.83
2018-11-23T09:55:11.076Z,16.57
2018-11-23T09:57:39.846Z,16.33
2018-11-23T10:00:14.038Z,17.00
2018-11-23T10:02:44.271Z,15.30
2018-11-23T10:05:13.461Z,14.40
2018-11-23T10:07:43.079Z,13.63
2018-11-23T10:10:13.700Z,12.53
2018-11-23T10:12:42.957Z,12.83
2018-11-23T10:15:12.730Z,12.77
2018-11-23T10:17:41.925Z,12.63
2018-11-23T10:20:12.828Z,11.80
2018-11-23T10:22:41.650Z,14.83
2018-11-23T10:25:11.501Z,11.40
2018-11-23T10:27:40.694Z,14.17
2018-11-23T10:30:12.053Z,11.27
2018-11-23T10:32:40.717Z,13.33
2018-11-23T10:35:09.889Z,14.50
2018-11-23T10:37:39.380Z,13.23
2018-11-23T10:40:10.232Z,12.47
2018-11-23T10:42:39.154Z,11.87
2018-11-23T10:45:13.408Z,10.67
2018-11-23T10:47:41.980Z,9.60
2018-11-23T10:50:13.282Z,10.90
2018-11-23T10:52:42.706Z,10.87
2018-11-23T10:55:14.198Z,16.57
2018-11-23T10:57:42.822Z,15.50
2018-11-23T11:00:21.361Z,10.07
2018-11-23T11:02:56.811Z,8.47
2018-11-23T11:05:31.158Z,9.10
2018-11-23T11:08:01.220Z,11.30
2018-11-23T11:10:29.729Z,11.03
2018-11-23T11:12:58.436Z,10.83
2018-11-23T11:15:27.096Z,12.17
2018-11-23T11:17:55.868Z,10.60
2018-11-23T11:20:24.375Z,9.80
2018-11-23T11:22:52.906Z,11.60
2018-11-23T11:25:21.614Z,13.17
2018-11-23T11:27:50.421Z,12.57
2018-11-23T11:30:19.360Z,10.13
2018-11-23T11:32:48.379Z,10.13
2018-11-23T11:35:16.864Z,8.33
2018-11-23T11:37:45.583Z,10.83
2018-11-23T11:40:15.812Z,7.63
2018-11-23T11:42:44.631Z,12.03
2018-11-23T11:45:14.473Z,8.23
2018-11-23T11:47:43.858Z,11.30
2018-11-23T11:50:12.849Z,6.33
2018-11-23T11:52:42.650Z,9.23
2018-11-23T11:55:13.056Z,10.00
2018-11-23T11:57:41.716Z,8.30
2018-11-23T12:00:15.411Z,6.93
2018-11-23T12:02:44.292Z,7.67
2018-11-23T12:05:13.260Z,6.70
2018-11-23T12:07:41.629Z,6.63
2018-11-23T12:10:13.649Z,5.30
2018-11-23T12:12:41.883Z,6.23
2018-11-23T12:15:11.226Z,6.73
2018-11-23T12:17:39.786Z,6.80
2018-11-23T12:20:11.862Z,6.07
2018-11-23T12:22:40.228Z,7.27
2018-11-23T12:25:08.935Z,6.07
2018-11-23T12:27:37.520Z,6.50
2018-11-23T12:30:08.622Z,9.97
2018-11-23T12:32:37.050Z,5.37
2018-11-23T12:35:06.816Z,6.03
2018-11-23T12:37:35.464Z,5.20
2018-11-23T12:40:04.565Z,6.07
2018-11-23T12:42:33.369Z,7.83
2018-11-23T12:45:01.989Z,5.47
2018-11-23T12:47:30.718Z,7.70
2018-11-23T12:50:00.347Z,6.07
2018-11-23T12:52:29.048Z,7.07
2018-11-23T12:54:57.994Z,5.33
2018-11-23T12:57:26.757Z,6.50
2018-11-23T12:59:55.353Z,7.10
2018-11-23T13:02:24.454Z,7.03
2018-11-23T13:04:53.873Z,9.00
2018-11-23T13:07:22.534Z,8.37
2018-11-23T13:09:51.296Z,6.83
2018-11-23T13:12:20.017Z,6.63
2018-11-23T13:14:48.761Z,10.03
2018-11-23T13:17:17.270Z,8.83
2018-11-23T13:19:46.077Z,9.40
2018-11-23T13:22:14.590Z,7.37
2018-11-23T13:24:43.333Z,12.13
2018-11-23T13:27:15.699Z,9.83
2018-11-23T13:29:45.861Z,8.10
2018-11-23T13:32:14.737Z,8.23
2018-11-23T13:34:43.524Z,8.83
2018-11-23T13:37:12.242Z,7.33
2018-11-23T13:39:40.684Z,8.57
2018-11-23T13:42:09.311Z,8.10
2018-11-23T13:44:37.947Z,8.10
2018-11-23T13:47:06.915Z,7.30
2018-11-23T13:49:35.505Z,7.80
2018-11-23T13:52:04.974Z,7.70
2018-11-23T13:54:34.037Z,12.07
2018-11-23T13:57:02.798Z,9.30
2018-11-23T13:59:32.104Z,6.70
2018-11-23T14:02:00.913Z,8.43
2018-11-23T14:04:29.471Z,6.97
2018-11-23T14:06:58.116Z,8.90
2018-11-23T14:09:26.757Z,8.03
2018-11-23T14:11:55.652Z,8.70
2018-11-23T14:14:24.195Z,6.30
2018-11-23T14:16:52.862Z,7.27
2018-11-23T14:19:22.237Z,10.83
2018-11-23T14:21:50.972Z,6.87
2018-11-23T14:24:19.583Z,8.63
2018-11-23T14:26:47.975Z,9.63
2018-11-23T14:29:16.608Z,10.10
2018-11-23T14:31:45.214Z,10.40
2018-11-23T14:34:13.924Z,7.80
2018-11-23T14:36:42.500Z,9.40
2018-11-23T14:39:11.185Z,7.70
2018-11-23T14:41:39.923Z,8.50
2018-11-23T14:44:08.517Z,6.23
2018-11-23T14:46:36.973Z,6.87
2018-11-23T14:49:06.095Z,9.20
2018-11-23T14:51:34.716Z,7.77
2018-11-23T14:54:03.361Z,6.23
2018-11-23T14:56:32.088Z,6.57
2018-11-23T14:59:00.887Z,7.47
2018-11-23T15:01:29.373Z,9.17
2018-11-23T15:03:58.021Z,6.20
2018-11-23T15:06:26.639Z,9.33
2018-11-23T15:08:55.167Z,7.67
2018-11-23T15:11:23.745Z,9.60
2018-11-23T15:13:52.360Z,6.90
2018-11-23T15:16:21.077Z,7.97
2018-11-23T15:18:50.597Z,9.73
2018-11-23T15:21:19.253Z,8.23
2018-11-23T15:23:47.859Z,8.77
2018-11-23T15:26:16.461Z,7.70
2018-11-23T15:28:45.215Z,10.77
2018-11-23T15:31:13.865Z,8.20
2018-11-23T15:33:42.258Z,7.57
2018-11-23T15:36:11.778Z,8.00
2018-11-23T15:38:40.676Z,9.13
2018-11-23T15:41:09.352Z,10.80
2018-11-23T15:43:37.897Z,9.03
2018-11-23T15:46:06.649Z,8.13
2018-11-23T15:48:35.332Z,8.47
2018-11-23T15:51:07.361Z,7.97
2018-11-23T15:53:36.066Z,8.80
2018-11-23T15:56:04.485Z,8.40
2018-11-23T15:58:33.130Z,11.77
2018-11-23T16:01:01.933Z,8.07
2018-11-23T16:03:30.416Z,8.03
2018-11-23T16:05:58.948Z,9.93
2018-11-23T16:08:27.653Z,8.90
2018-11-23T16:10:56.380Z,9.67
2018-11-23T16:13:24.792Z,11.90
2018-11-23T16:15:53.264Z,11.20
2018-11-23T16:18:21.919Z,9.40
2018-11-23T16:20:50.417Z,13.40
2018-11-23T16:23:20.208Z,10.73
2018-11-23T16:25:49.448Z,10.43
2018-11-23T16:28:17.981Z,12.60
2018-11-23T16:30:49.585Z,14.37
2018-11-23T16:33:22.814Z,12.07
2018-11-23T16:35:51.644Z,11.50
2018-11-23T16:38:21.630Z,14.43
2018-11-23T16:40:51.907Z,14.43
2018-11-23T16:43:20.634Z,19.93
2018-11-23T16:45:49.413Z,14.60
2018-11-23T16:48:18.794Z,11.47
2018-11-23T16:50:47.479Z,12.37
2018-11-23T16:53:16.096Z,12.80
2018-11-23T16:55:44.724Z,18.70
2018-11-23T16:58:13.876Z,15.40
2018-11-23T17:00:44.906Z,15.27
2018-11-23T17:03:15.125Z,13.03
2018-11-23T17:05:45.234Z,13.83
2018-11-23T17:08:13.751Z,18.60
2018-11-23T17:10:42.666Z,17.20
2018-11-23T17:13:11.100Z,24.93
2018-11-23T17:15:39.695Z,16.47
2018-11-23T17:18:08.891Z,15.67
2018-11-23T17:20:38.418Z,14.33
2018-11-23T17:23:08.044Z,14.60
2018-11-23T17:25:36.677Z,18.27
2018-11-23T17:28:06.867Z,18.43
2018-11-23T17:30:35.963Z,15.27
2018-11-23T17:33:04.793Z,16.53
2018-11-23T17:35:33.360Z,18.73
2018-11-23T17:38:01.965Z,19.87
2018-11-23T17:40:32.160Z,22.77
2018-11-23T17:43:00.872Z,16.70
2018-11-23T17:45:30.781Z,27.50
2018-11-23T17:47:59.402Z,20.93
2018-11-23T17:50:30.061Z,24.30
2018-11-23T17:52:59.017Z,20.80
2018-11-23T17:55:27.650Z,16.37
2018-11-23T17:57:56.574Z,27.33
2018-11-23T18:00:29.345Z,20.60
2018-11-23T18:02:58.929Z,24.40
2018-11-23T18:05:28.293Z,20.27
2018-11-23T18:07:57.119Z,23.43
2018-11-23T18:10:27.350Z,19.20
2018-11-23T18:12:56.863Z,22.70
2018-11-23T18:15:27.786Z,19.20
2018-11-23T18:17:57.191Z,17.23
2018-11-23T18:20:26.777Z,21.00
2018-11-23T18:22:56.203Z,26.27
2018-11-23T18:25:27.148Z,20.47
2018-11-23T18:28:01.758Z,23.03
2018-11-23T18:30:32.630Z,19.10
2018-11-23T18:33:02.432Z,21.50
2018-11-23T18:35:31.879Z,17.70
2018-11-23T18:38:00.887Z,18.77
2018-11-23T18:40:32.313Z,18.23
2018-11-23T18:42:58.741Z,20.73
2018-11-23T18:45:27.422Z,24.43
2018-11-23T18:47:56.004Z,19.67
2018-11-23T18:50:24.607Z,19.97
2018-11-23T18:52:53.171Z,23.37
2018-11-23T18:55:22.171Z,16.43
2018-11-23T18:57:51.199Z,15.70
2018-11-23T19:00:20.232Z,18.47
2018-11-23T19:02:49.279Z,18.33
2018-11-23T19:05:19.130Z,17.40
2018-11-23T19:07:47.958Z,16.57
2018-11-23T19:10:16.768Z,15.43
2018-11-23T19:12:45.303Z,18.23
2018-11-23T19:15:14.834Z,17.23
2018-11-23T19:17:43.420Z,14.87
2018-11-23T19:20:17.563Z,16.53
2018-11-23T19:22:47.045Z,19.13
2018-11-23T19:25:15.588Z,15.97
2018-11-23T19:27:44.159Z,19.50
2018-11-23T19:30:13.803Z,12.90
2018-11-23T19:32:42.402Z,16.10
2018-11-23T19:35:11.050Z,16.53
2018-11-23T19:37:39.770Z,16.33
2018-11-23T19:40:10.461Z,15.47
2018-11-23T19:42:39.191Z,15.33
2018-11-23T19:45:10.380Z,16.83
2018-11-23T19:47:39.025Z,17.57
2018-11-23T19:50:11.117Z,19.83
2018-11-23T19:52:39.806Z,16.43
2018-11-23T19:55:08.778Z,14.97
2018-11-23T19:57:37.223Z,16.73
2018-11-23T20:00:10.163Z,20.37
2018-11-23T20:02:38.752Z,23.20
2018-11-23T20:05:07.418Z,20.90
2018-11-23T20:07:36.360Z,21.33
2018-11-23T20:10:07.963Z,22.37
2018-11-23T20:12:36.511Z,26.20
2018-11-23T20:15:05.646Z,21.07
2018-11-23T20:17:41.010Z,23.10
2018-11-23T20:20:03.164Z,25.80
2018-11-23T20:22:31.672Z,21.80
2018-11-23T20:25:00.159Z,22.37
2018-11-23T20:27:28.750Z,28.07
2018-11-23T20:29:57.326Z,29.77
2018-11-23T20:32:25.736Z,22.27
2018-11-23T20:34:54.006Z,34.10
2018-11-23T20:37:22.591Z,24.60
2018-11-23T20:39:51.045Z,25.63
2018-11-23T20:42:19.527Z,31.13
2018-11-23T20:44:48.199Z,24.33
2018-11-23T20:47:17.705Z,32.47
2018-11-23T20:49:46.326Z,28.17
2018-11-23T20:52:14.799Z,32.17
2018-11-23T20:54:43.326Z,27.47
2018-11-23T20:57:11.818Z,28.53
2018-11-23T20:59:40.234Z,26.83
2018-11-23T21:02:08.825Z,26.70
2018-11-23T21:04:37.389Z,30.13
2018-11-23T21:07:06.225Z,30.20
2018-11-23T21:09:36.766Z,26.57
2018-11-23T21:12:05.732Z,23.00
2018-11-23T21:14:34.295Z,28.77
2018-11-23T21:17:02.598Z,29.83
2018-11-23T21:19:31.077Z,28.03
2018-11-23T21:21:59.799Z,26.37
2018-11-23T21:24:28.490Z,27.63
2018-11-23T21:26:56.953Z,27.13
2018-11-23T21:29:25.355Z,27.17
2018-11-23T21:31:54.065Z,25.10
2018-11-23T21:34:22.844Z,28.40
2018-11-23T21:36:51.391Z,25.73
2018-11-23T21:39:19.945Z,28.83
2018-11-23T21:41:48.456Z,25.77
2018-11-23T21:44:17.055Z,28.03
2018-11-23T21:46:45.754Z,26.80
2018-11-23T21:49:15.446Z,33.50
2018-11-23T21:51:44.032Z,26.70
2018-11-23T21:54:13.227Z,25.70
2018-11-23T21:56:43.121Z,23.30
2018-11-23T21:59:12.752Z,28.83
2018-11-23T22:01:41.522Z,26.97
2018-11-23T22:04:10.495Z,27.37
2018-11-23T22:06:39.127Z,27.57
2018-11-23T22:09:08.183Z,29.37
2018-11-23T22:11:36.693Z,36.03
2018-11-23T22:14:05.234Z,33.43
2018-11-23T22:16:34.281Z,34.43
2018-11-23T22:19:03.218Z,33.40
2018-11-23T22:21:31.724Z,35.00
2018-11-23T22:24:01.745Z,34.70
2018-11-23T22:26:29.155Z,34.47
2018-11-23T22:28:57.938Z,35.00
2018-11-23T22:31:26.423Z,31.23
2018-11-23T22:33:54.880Z,27.07
2018-11-23T22:36:23.390Z,34.50
2018-11-23T22:38:51.949Z,30.97
2018-11-23T22:41:20.399Z,27.20
2018-11-23T22:43:49.041Z,30.87
2018-11-23T22:46:17.594Z,30.77
2018-11-23T22:48:46.076Z,26.20
2018-11-23T22:51:21.365Z,34.47
2018-11-23T22:53:50.008Z,30.60
2018-11-23T22:56:18.408Z,38.23
2018-11-23T22:58:46.966Z,29.53
2018-11-23T23:01:15.534Z,35.87
2018-11-23T23:03:43.944Z,29.77
2018-11-23T23:06:12.390Z,31.17
2018-11-23T23:08:41.916Z,25.90
2018-11-23T23:11:10.400Z,31.00
2018-11-23T23:13:38.999Z,36.33
2018-11-23T23:16:07.481Z,34.23
2018-11-23T23:18:36.123Z,31.77
2018-11-23T23:21:04.776Z,27.40
2018-11-23T23:23:33.125Z,31.70
2018-11-23T23:26:01.571Z,28.97
2018-11-23T23:28:30.204Z,33.23
2018-11-23T23:30:58.708Z,30.90
2018-11-23T23:33:27.314Z,33.23
2018-11-23T23:35:55.887Z,27.77
2018-11-23T23:38:24.160Z,25.77
2018-11-23T23:40:52.933Z,29.17
2018-11-23T23:43:21.604Z,29.53
2018-11-23T23:45:50.269Z,28.00
2018-11-23T23:48:18.633Z,30.03
2018-11-23T23:50:47.225Z,31.57
2018-11-23T23:53:15.851Z,28.30
2018-11-23T23:55:44.289Z,29.83
2018-11-23T23:58:12.846Z,31.57
